Impacts METAR Board
IDs:

KTCL - Tuscaloosa Rgnl, AL, US

Updated at: 0100 UTC 24 Apr 2019
Potential Impact None Slight Moderate High
Time 23/13Z 23/14Z 23/15Z 23/16Z 23/17Z 23/18Z 23/19Z 23/20Z 23/21Z 23/22Z 23/23Z 24/00Z 24/01Z
Temp62 66 72 75 79 82 83 83 84 81 80 74 71
Dewpt55 56 55 55 55 56 54 53 51 52 55 60 60
Altim30.16 30.16 30.17 30.15 30.13 30.12 30.10 30.07 30.06 30.05 30.05 30.04 30.04
VIS10 10 10 10 10 10 10 10 10 10 10 10 10
CIG-- -- -- -- -- -- -- -- -- -- -- -- --
CoverCLRCLRCLRCLRCLRCLRCLRCLRCLRCLRCLRCLRCLR
FltCatVFRVFRVFRVFRVFRVFRVFRVFRVFRVFRVFRVFRVFR
WX--------------------------
WDir000000190190200220000
WSpd0 0 0 0 0 4 8 7 9 5 0 0 0
WGst-- -- -- -- -- -- -- -- -- -- -- -- --
Raw hourly METARs
KTCL 231253Z 00000KT 10SM CLR 17/13 A3016 RMK AO2 SLP212 T01670128
KTCL 231353Z 00000KT 10SM CLR 19/13 A3016 RMK AO2 SLP212 T01890133
KTCL 231453Z 00000KT 10SM CLR 22/13 A3017 RMK AO2 SLP213 T02220128 51004
KTCL 231553Z 00000KT 10SM CLR 24/13 A3015 RMK AO2 SLP208 T02390128
KTCL 231653Z 00000KT 10SM CLR 26/13 A3013 RMK AO2 SLP201 T02610128
KTCL 231753Z VRB04KT 10SM CLR 28/13 A3012 RMK AO2 SLP198 T02780133 10278 20122 56015
KTCL 231853Z 19008KT 10SM CLR 28/12 A3010 RMK AO2 SLP191 T02830122
KTCL 231953Z 19007KT 10SM CLR 28/12 A3007 RMK AO2 SLP182 T02830117
KTCL 232053Z 20009KT 10SM CLR 29/11 A3006 RMK AO2 SLP176 T02890106 56022
KTCL 232153Z 22005KT 10SM CLR 27/11 A3005 RMK AO2 SLP175 T02720111
KTCL 232253Z 00000KT 10SM CLR 27/13 A3005 RMK AO2 SLP173 T02670128
KTCL 232353Z 00000KT 10SM CLR 23/16 A3004 RMK AO2 SLP170 T02330156 10289 20233 58006
KTCL 240053Z AUTO 00000KT 10SM CLR 22/16 A3004 RMK AO2 SLP170 T02170156



Page loaded:  01:51 UTC  |   06:51 PM Pacific  |   07:51 PM Mountain  |   08:51 PM Central  |   09:51 PM Eastern

 

ADVISORIES

FORECASTS

FORECASTS

OBSERVATIONS

USER TOOLS

ABOUT US